CheckWX is a tool to help pilots better visualize weather data.  It is not intended as a substitute for an official pre-flight weather briefing.

23:49:03 UTC

EGQL METAR
RAF Leuchars Airport
St. Andrews, United Kingdom
Current

59 mins ago

EGQL 222250Z 23013KT 9999 SCT022 BKN038 10/07 Q1012 WHT
Observed
Oct-22 @ 22:50 UTC
Wind
  • 230° at 13 KTS
Visibility
10,000+ meters
Flight Rules
VFR
Cloud Levels
  • Scattered at 2,200' AGL
  • Broken at 3,800' AGL
Temperature
10°C / 50°F
Dewpoint
C / 45°F
Humidity
82%
Altimeter
29.88" Hg
Pressure
1011.92 hPa
Previous

2 hours ago

EGQL 222150Z AUTO 23012KT 9999 FEW021/// BKN040/// BKN180/// 10/07 Q1013
Observed
Oct-22 @ 21:50 UTC
Wind
  • 230° at 12 KTS
Visibility
10,000+ meters
Flight Rules
VFR
Cloud Levels
  • Few at 2,100' AGL
  • Broken at 4,000' AGL
  • Broken at 18,000' AGL
Temperature
10°C / 50°F
Dewpoint
C / 45°F
Humidity
82%
Altimeter
29.91" Hg
Pressure
1012.92 hPa
Previous

3 hours ago

EGQL 222050Z 24012KT 9999 SCT020 BKN037 10/07 Q1013 WHT
Observed
Oct-22 @ 20:50 UTC
Wind
  • 240° at 12 KTS
Visibility
10,000+ meters
Flight Rules
VFR
Cloud Levels
  • Scattered at 2,000' AGL
  • Broken at 3,700' AGL
Temperature
10°C / 50°F
Dewpoint
C / 45°F
Humidity
82%
Altimeter
29.91" Hg
Pressure
1012.92 hPa